Time;durP1;ratioP1;P1;durP2;ratioP2;P2;SDS_P1;SDS_P2;PMS_P1;PMS_P2;Temp;Humidity;BMP_temperature;BMP_pressure;BME280_temperature;BME280_humidity;BME280_pressure;Samples;Min_cycle;Max_cycle;Signal;HPM_P1;HPM_P2
2021/03/04 00:00:26;;;;;;;29.77;18.45;;;;;;;7.48;66.86;98648.75;5078616;28;21227;-76
2021/03/04 00:02:52;;;;;;;27.48;16.75;;;;;;;7.39;66.31;98643.72;5078108;28;20281;-76
2021/03/04 00:05:18;;;;;;;26.88;17.33;;;;;;;7.34;67.24;98648.97;5079035;28;20217;-75
2021/03/04 00:07:45;;;;;;;30.13;16.83;;;;;;;7.31;66.99;98645.59;5079397;28;20986;-75
2021/03/04 00:10:13;;;;;;;28.50;17.73;;;;;;;7.22;67.38;98645.75;5079033;28;20339;-76
2021/03/04 00:12:39;;;;;;;25.15;16.52;;;;;;;7.20;67.39;98647.50;5079089;28;20229;-76
2021/03/04 00:15:07;;;;;;;25.00;16.88;;;;;;;7.23;67.38;98644.88;5079698;28;20220;-76
2021/03/04 00:17:34;;;;;;;31.95;18.02;;;;;;;7.27;66.57;98649.13;5059063;28;20620;-74
2021/03/04 00:20:00;;;;;;;27.63;17.88;;;;;;;7.30;66.93;98636.09;5059613;28;20223;-75
2021/03/04 00:22:27;;;;;;;24.35;16.63;;;;;;;7.30;67.18;98636.09;5057903;28;20370;-76
2021/03/04 00:24:53;;;;;;;30.25;18.20;;;;;;;7.29;66.51;98629.19;5059717;28;20221;-77
2021/03/04 00:27:19;;;;;;;30.50;16.02;;;;;;;7.32;67.25;98639.53;5058242;28;20939;-76
2021/03/04 00:29:45;;;;;;;28.52;16.80;;;;;;;7.34;67.11;98635.16;5058902;28;20328;-75
2021/03/04 00:32:11;;;;;;;32.20;17.98;;;;;;;7.36;66.87;98627.34;5058265;28;20244;-76
2021/03/04 00:34:38;;;;;;;29.63;17.45;;;;;;;7.37;67.07;98614.34;5058893;28;20221;-77
2021/03/04 00:37:07;;;;;;;28.23;17.75;;;;;;;7.39;67.25;98620.38;5074696;28;20247;-75
2021/03/04 00:39:33;;;;;;;27.00;17.13;;;;;;;7.39;66.98;98607.38;5078754;28;20623;-75
2021/03/04 00:41:59;;;;;;;23.15;16.20;;;;;;;7.39;66.74;98612.59;5076982;28;20236;-76
2021/03/04 00:44:25;;;;;;;30.05;17.30;;;;;;;7.39;67.00;98602.19;5079181;28;20213;-76
2021/03/04 00:46:51;;;;;;;27.42;16.17;;;;;;;7.39;66.50;98607.38;5078661;28;20648;-75
2021/03/04 00:49:17;;;;;;;25.70;16.80;;;;;;;7.34;66.56;98609.22;5078924;28;20313;-77
2021/03/04 00:51:44;;;;;;;29.70;17.77;;;;;;;7.29;66.75;98598.03;5077733;28;20717;-76
2021/03/04 00:54:11;;;;;;;28.65;17.27;;;;;;;7.28;66.95;98599.78;5078464;28;20221;-75
2021/03/04 00:56:37;;;;;;;26.88;17.58;;;;;;;7.30;66.87;98597.19;5078089;28;20241;-76
2021/03/04 00:59:03;;;;;;;24.77;16.23;;;;;;;7.32;67.37;98592.81;5078820;28;20213;-76
2021/03/04 01:01:29;;;;;;;27.63;16.63;;;;;;;7.36;67.05;98585.81;5076099;28;20839;-76
2021/03/04 01:03:55;;;;;;;26.55;16.48;;;;;;;7.35;66.80;98584.94;5078810;28;20208;-75
2021/03/04 01:06:21;;;;;;;26.70;17.38;;;;;;;7.38;66.82;98584.91;5076411;28;21119;-75
2021/03/04 01:08:48;;;;;;;27.80;16.02;;;;;;;7.35;66.74;98579.75;5078885;28;20228;-76
2021/03/04 01:11:15;;;;;;;25.70;16.30;;;;;;;7.33;66.74;98581.53;5078002;28;20240;-75
2021/03/04 01:13:41;;;;;;;28.00;16.67;;;;;;;7.25;67.26;98584.28;5078994;28;20274;-76
2021/03/04 01:16:07;;;;;;;25.45;16.42;;;;;;;7.23;67.29;98580.00;5077818;28;20290;-77
2021/03/04 01:18:34;;;;;;;23.95;15.98;;;;;;;7.23;67.18;98574.81;5078840;28;20277;-75
2021/03/04 01:21:00;;;;;;;27.15;16.38;;;;;;;7.21;67.13;98576.59;5077726;28;20956;-75
2021/03/04 01:23:26;;;;;;;27.77;16.48;;;;;;;7.21;67.65;98582.63;5076307;28;20301;-75
2021/03/04 01:25:53;;;;;;;23.98;16.42;;;;;;;7.25;66.88;98567.84;5073954;28;20240;-75
2021/03/04 01:28:19;;;;;;;23.92;15.77;;;;;;;7.25;67.46;98560.06;5075081;28;20239;-76
2021/03/04 01:30:46;;;;;;;28.17;16.25;;;;;;;7.21;67.80;98551.50;5075223;28;20236;-76
2021/03/04 01:33:12;;;;;;;25.10;15.68;;;;;;;7.13;67.50;98555.94;5078283;28;20255;-75
2021/03/04 01:35:38;;;;;;;25.27;16.45;;;;;;;7.04;67.53;98549.22;5078272;28;20293;-76
2021/03/04 01:38:04;;;;;;;25.27;16.10;;;;;;;7.07;68.14;98548.28;5075550;28;20209;-75
2021/03/04 01:40:30;;;;;;;26.60;15.43;;;;;;;7.09;68.00;98542.19;5075586;28;20239;-76
2021/03/04 01:42:57;;;;;;;26.23;15.80;;;;;;;7.09;68.21;98529.19;5073196;28;20281;-76
2021/03/04 01:45:23;;;;;;;24.38;15.32;;;;;;;7.05;68.26;98519.78;5078451;28;20227;-76
2021/03/04 01:47:51;;;;;;;26.15;16.15;;;;;;;7.06;68.10;98513.72;5078471;28;20771;-77
2021/03/04 01:50:18;;;;;;;26.55;16.00;;;;;;;7.05;68.13;98512.00;5077752;28;20212;-76
2021/03/04 01:52:45;;;;;;;23.70;15.82;;;;;;;7.05;67.91;98514.59;5078334;28;20237;-77
2021/03/04 01:55:14;;;;;;;25.83;15.65;;;;;;;7.07;67.67;98520.59;5079805;28;20220;-76
2021/03/04 01:57:41;;;;;;;23.48;15.07;;;;;;;7.07;68.45;98515.41;5081798;28;20903;-77
2021/03/04 02:00:09;;;;;;;24.60;15.38;;;;;;;7.00;68.20;98528.53;5081344;28;20217;-75
2021/03/04 02:02:36;;;;;;;23.77;14.85;;;;;;;6.90;68.41;98533.03;5080775;28;20229;-75
2021/03/04 02:05:06;;;;;;;25.70;15.15;;;;;;;6.89;68.22;98521.81;5080623;28;20274;-77
2021/03/04 02:07:36;;;;;;;22.05;15.25;;;;;;;6.93;67.73;98514.84;5061155;28;20304;-75
2021/03/04 02:10:07;;;;;;;24.65;15.18;;;;;;;6.97;67.89;98506.09;5060753;28;20224;-75
2021/03/04 02:12:38;;;;;;;20.95;14.48;;;;;;;7.00;67.92;98497.41;5061230;28;20795;-76
2021/03/04 02:15:09;;;;;;;20.83;14.32;;;;;;;7.01;68.29;98499.97;5061345;28;20210;-76
2021/03/04 02:17:37;;;;;;;22.50;15.00;;;;;;;6.99;68.07;98504.34;5061235;28;20241;-76
2021/03/04 02:20:05;;;;;;;24.02;14.70;;;;;;;7.00;67.91;98505.19;5061329;28;21011;-75
2021/03/04 02:22:47;;;;;;;23.90;15.70;;;;;;;6.97;68.11;98495.72;5081208;28;20241;-75
2021/03/04 02:25:19;;;;;;;24.90;14.52;;;;;;;6.93;68.15;98489.75;5081384;28;20220;-76
2021/03/04 02:27:47;;;;;;;23.75;14.50;;;;;;;6.88;68.58;98511.47;5080546;28;20304;-76
2021/03/04 02:30:16;;;;;;;23.45;14.82;;;;;;;6.75;69.18;98510.81;5081132;28;20221;-77
2021/03/04 02:32:45;;;;;;;23.20;15.48;;;;;;;6.71;69.24;98514.34;5080003;28;20237;-75
2021/03/04 02:35:14;;;;;;;26.20;15.40;;;;;;;6.74;68.78;98511.69;5081327;28;20217;-75
2021/03/04 02:37:43;;;;;;;21.42;14.50;;;;;;;6.80;68.98;98502.94;5081602;28;20242;-75
2021/03/04 02:40:11;;;;;;;24.67;16.02;;;;;;;6.84;68.67;98504.63;5080737;28;20228;-76
2021/03/04 02:42:38;;;;;;;22.25;14.77;;;;;;;6.88;68.47;98516.66;5080844;28;20264;-76
2021/03/04 02:45:07;;;;;;;25.88;16.15;;;;;;;6.92;68.71;98513.09;5081599;28;20221;-75
2021/03/04 02:47:33;;;;;;;23.58;15.07;;;;;;;6.92;68.36;98505.34;5081182;28;20232;-76
2021/03/04 02:50:00;;;;;;;23.05;14.65;;;;;;;6.96;68.25;98501.78;5080649;28;20437;-77
2021/03/04 02:52:26;;;;;;;28.20;16.88;;;;;;;6.98;68.64;98502.63;5079982;28;20251;-75
2021/03/04 02:54:53;;;;;;;25.65;16.15;;;;;;;6.97;68.31;98500.91;5081325;28;20221;-76
2021/03/04 02:57:20;;;;;;;22.80;15.00;;;;;;;6.98;68.48;98500.03;5080211;28;20365;-76
2021/03/04 02:59:48;;;;;;;25.73;15.68;;;;;;;6.99;68.89;98493.97;5080957;28;20249;-75
2021/03/04 03:02:15;;;;;;;21.77;14.98;;;;;;;7.00;68.61;98500.84;5079916;28;20228;-75
2021/03/04 03:04:42;;;;;;;25.70;15.52;;;;;;;6.99;68.75;98488.78;5081016;28;20220;-77
2021/03/04 03:07:12;;;;;;;26.65;16.20;;;;;;;7.00;67.97;98487.88;5079980;28;20313;-76
2021/03/04 03:09:38;;;;;;;23.00;15.05;;;;;;;7.02;68.75;98482.66;5081040;28;20231;-76
2021/03/04 03:12:05;;;;;;;23.73;15.88;;;;;;;7.02;68.21;98480.94;5079672;28;20241;-78
2021/03/04 03:14:33;;;;;;;28.48;16.95;;;;;;;7.02;68.04;98475.75;5080797;28;20685;-78
2021/03/04 03:17:00;;;;;;;25.10;16.65;;;;;;;7.01;68.17;98481.81;5079260;28;20924;-75
2021/03/04 03:19:27;;;;;;;25.90;15.55;;;;;;;7.01;68.11;98486.16;5080872;28;20221;-77
2021/03/04 03:21:54;;;;;;;24.38;16.55;;;;;;;7.00;68.22;98474.91;5079916;28;20318;-77
2021/03/04 03:24:20;;;;;;;23.75;14.95;;;;;;;6.96;68.36;98475.84;5080818;28;20230;-77
2021/03/04 03:26:46;;;;;;;29.55;15.48;;;;;;;6.89;68.86;98476.84;5080005;28;20241;-78
2021/03/04 03:29:13;;;;;;;29.40;15.45;;;;;;;6.87;68.83;98470.84;5080665;28;20267;-76
2021/03/04 03:31:40;;;;;;;21.20;14.90;;;;;;;6.81;68.75;98469.22;5079192;28;20244;-76
2021/03/04 03:34:07;;;;;;;24.48;16.00;;;;;;;6.81;69.18;98476.16;5080476;28;20709;-77
2021/03/04 03:36:35;;;;;;;24.58;14.77;;;;;;;6.81;68.99;98468.38;5079674;28;20236;-76
2021/03/04 03:39:04;;;;;;;24.42;15.63;;;;;;;6.82;68.79;98470.94;5079900;28;20224;-75
2021/03/04 03:41:30;;;;;;;23.67;15.60;;;;;;;6.84;69.00;98460.53;5079238;28;20247;-75
2021/03/04 03:43:56;;;;;;;22.25;15.15;;;;;;;6.82;68.82;98462.28;5080515;28;20217;-76
2021/03/04 03:46:23;;;;;;;23.05;15.48;;;;;;;6.82;68.82;98460.56;5079884;28;20298;-75
2021/03/04 03:48:50;;;;;;;24.38;15.15;;;;;;;6.85;69.31;98459.66;5080627;28;20299;-75
2021/03/04 03:51:16;;;;;;;23.85;15.85;;;;;;;6.86;69.05;98456.19;5079368;28;20228;-76
2021/03/04 03:53:43;;;;;;;31.88;17.75;;;;;;;6.81;69.08;98453.66;5078442;28;20759;-75
2021/03/04 03:56:10;;;;;;;26.58;15.68;;;;;;;6.81;69.00;98456.25;5079188;28;20239;-77
2021/03/04 03:58:38;;;;;;;27.27;16.95;;;;;;;6.82;69.37;98449.31;5079778;28;20221;-77
2021/03/04 04:01:05;;;;;;;25.75;16.10;;;;;;;6.83;69.29;98440.66;5079409;28;20292;-77
2021/03/04 04:03:31;;;;;;;27.48;16.92;;;;;;;6.83;69.04;98440.66;5079956;28;20315;-76
2021/03/04 04:05:57;;;;;;;25.13;15.68;;;;;;;6.83;69.20;98445.84;5079169;28;20240;-76
2021/03/04 04:08:25;;;;;;;25.02;16.42;;;;;;;6.84;69.36;98442.41;5079746;28;20289;-75
2021/03/04 04:10:53;;;;;;;24.45;15.57;;;;;;;6.83;69.01;98441.50;5078799;28;20348;-76
2021/03/04 04:13:19;;;;;;;24.13;15.40;;;;;;;6.85;69.48;98444.09;5080098;28;20236;-75
2021/03/04 04:15:46;;;;;;;24.02;16.20;;;;;;;6.85;69.37;98442.34;5079431;28;20293;-77
2021/03/04 04:18:12;;;;;;;25.45;15.75;;;;;;;6.85;68.86;98439.75;5079591;28;20274;-76
2021/03/04 04:20:39;;;;;;;24.85;16.05;;;;;;;6.86;69.35;98440.63;5078201;28;20993;-76
2021/03/04 04:23:06;;;;;;;26.63;16.13;;;;;;;6.84;69.38;98438.06;5079122;28;20237;-76
2021/03/04 04:25:36;;;;;;;29.05;16.77;;;;;;;6.83;69.25;98444.13;5079079;28;20232;-76
2021/03/04 04:28:03;;;;;;;25.27;15.80;;;;;;;6.80;69.55;98441.59;5078805;28;20213;-76
2021/03/04 04:30:29;;;;;;;29.20;16.98;;;;;;;6.71;69.62;98432.25;5079042;28;20367;-76
2021/03/04 04:32:55;;;;;;;24.67;16.65;;;;;;;6.70;69.68;98430.53;5078878;28;21022;-76
2021/03/04 04:35:21;;;;;;;26.15;17.02;;;;;;;6.72;69.39;98431.34;5076709;28;20223;-76
2021/03/04 04:37:47;;;;;;;26.23;16.75;;;;;;;6.70;69.42;98425.34;5079416;28;20219;-76
2021/03/04 04:40:13;;;;;;;29.85;18.35;;;;;;;6.69;69.53;98434.00;5078641;28;20673;-76
2021/03/04 04:42:39;;;;;;;27.42;17.88;;;;;;;6.70;69.66;98420.16;5078807;28;20274;-78
2021/03/04 04:45:08;;;;;;;30.00;18.88;;;;;;;6.72;69.48;98425.31;5079348;28;20217;-76
2021/03/04 04:47:34;;;;;;;34.25;20.85;;;;;;;6.71;69.17;98419.28;5079043;28;20233;-75
2021/03/04 04:50:01;;;;;;;31.45;19.02;;;;;;;6.69;69.53;98410.69;5078994;28;20282;-76
2021/03/04 04:52:27;;;;;;;32.05;18.73;;;;;;;6.67;69.59;98409.84;5077811;28;20294;-76
2021/03/04 04:54:53;;;;;;;28.83;18.08;;;;;;;6.64;69.85;98409.06;5079331;28;20216;-75
2021/03/04 04:57:19;;;;;;;29.58;17.55;;;;;;;6.60;69.61;98408.25;5078729;28;20240;-76
2021/03/04 04:59:45;;;;;;;26.48;18.73;;;;;;;6.56;69.84;98397.09;5078873;28;20888;-75
2021/03/04 05:02:12;;;;;;;26.92;17.90;;;;;;;6.53;69.86;98391.13;5077383;28;20239;-76
2021/03/04 05:04:38;;;;;;;23.30;15.15;;;;;;;6.53;70.24;98393.72;5077997;28;20217;-76
2021/03/04 05:07:04;;;;;;;22.67;15.18;;;;;;;6.36;70.68;98394.84;5078055;28;20236;-77
2021/03/04 05:09:30;;;;;;;25.20;15.50;;;;;;;6.26;71.11;98406.25;5079146;28;20216;-75
2021/03/04 05:11:57;;;;;;;28.65;17.73;;;;;;;6.21;71.12;98410.66;5077620;28;20248;-76
2021/03/04 05:14:23;;;;;;;28.38;16.17;;;;;;;6.15;71.39;98408.19;5079328;28;20246;-75
2021/03/04 05:16:49;;;;;;;29.13;16.55;;;;;;;6.14;71.19;98404.72;5078196;28;20330;-75
2021/03/04 05:19:15;;;;;;;26.65;17.50;;;;;;;6.17;71.46;98398.63;5078490;28;20759;-76
2021/03/04 05:21:41;;;;;;;29.88;17.45;;;;;;;6.17;71.06;98393.47;5076703;28;20331;-76
2021/03/04 05:24:08;;;;;;;27.45;16.45;;;;;;;6.22;70.86;98398.56;5078629;28;20239;-78
2021/03/04 05:26:36;;;;;;;27.63;17.05;;;;;;;6.26;70.71;98393.31;5077633;28;20236;-75
2021/03/04 05:29:03;;;;;;;28.70;17.40;;;;;;;6.28;71.09;98390.69;5079164;28;20872;-76
2021/03/04 05:31:29;;;;;;;27.00;17.60;;;;;;;6.28;70.99;98386.34;5082011;28;20755;-75
2021/03/04 05:33:55;;;;;;;27.05;16.58;;;;;;;6.24;71.28;98389.03;5082757;28;20227;-76
2021/03/04 05:36:22;;;;;;;28.77;17.33;;;;;;;6.23;71.07;98375.25;5080969;28;20241;-75
2021/03/04 05:38:48;;;;;;;26.80;17.67;;;;;;;6.27;70.77;98376.03;5082766;28;20734;-75
2021/03/04 05:41:20;;;;;;;31.42;19.80;;;;;;;6.31;70.63;98368.19;5081875;28;20236;-76
2021/03/04 05:43:46;;;;;;;30.63;18.58;;;;;;;6.35;70.52;98369.81;5082010;28;20613;-75
2021/03/04 05:46:13;;;;;;;28.77;18.88;;;;;;;6.34;70.52;98362.94;5081808;28;20232;-76
2021/03/04 05:48:42;;;;;;;27.55;17.65;;;;;;;6.31;70.62;98368.19;5082239;28;20289;-77
2021/03/04 05:51:08;;;;;;;26.63;16.98;;;;;;;6.27;70.54;98363.94;5081361;28;20237;-76
2021/03/04 05:53:35;;;;;;;29.30;18.23;;;;;;;6.27;70.16;98363.94;5082388;28;20236;-75
2021/03/04 05:56:02;;;;;;;33.63;19.33;;;;;;;6.29;70.58;98357.00;5081892;28;20936;-76
2021/03/04 05:58:28;;;;;;;32.60;18.38;;;;;;;6.27;70.19;98355.31;5082770;28;20252;-77
2021/03/04 06:00:54;;;;;;;26.98;17.17;;;;;;;6.22;70.58;98354.53;5081178;28;20236;-76
2021/03/04 06:03:20;;;;;;;29.40;18.92;;;;;;;6.07;71.35;98353.06;5068665;28;20285;-77
2021/03/04 06:05:48;;;;;;;23.80;15.95;;;;;;;5.92;71.92;98357.59;5082280;28;20237;-75
2021/03/04 06:08:14;;;;;;;25.15;16.27;;;;;;;5.86;72.17;98365.44;5084333;28;20239;-75
2021/03/04 06:10:41;;;;;;;25.67;17.67;;;;;;;5.85;71.70;98360.31;5078693;28;20232;-76
2021/03/04 06:13:08;;;;;;;22.73;15.52;;;;;;;5.78;72.17;98357.81;5075064;28;20229;-77
2021/03/04 06:15:34;;;;;;;25.63;16.48;;;;;;;5.84;71.71;98354.25;5077067;28;20241;-76
2021/03/04 06:18:01;;;;;;;26.45;16.23;;;;;;;5.93;71.34;98343.75;5075693;28;20213;-77
2021/03/04 06:20:35;;;;;;;24.80;16.35;;;;;;;5.96;71.16;98348.91;5079252;28;20912;-75
2021/03/04 06:23:01;;;;;;;24.63;15.48;;;;;;;5.97;71.11;98335.09;5076898;28;20277;-77
2021/03/04 06:25:28;;;;;;;26.38;16.48;;;;;;;6.03;71.20;98333.25;5078501;28;20240;-75
2021/03/04 06:27:55;;;;;;;22.77;15.35;;;;;;;6.07;71.06;98340.97;5079517;28;20609;-76
2021/03/04 06:30:21;;;;;;;25.42;15.70;;;;;;;5.92;71.78;98339.47;5079952;28;20712;-77
2021/03/04 06:32:58;;;;;;;35.67;19.70;;;;;;;5.70;72.82;98346.72;5079806;28;20256;-75
2021/03/04 06:35:29;;;;;;;28.50;17.45;;;;;;;5.68;72.45;98337.25;5078359;28;20208;-76
2021/03/04 06:37:55;;;;;;;29.67;18.17;;;;;;;5.70;72.07;98338.13;5078823;28;20212;-76
2021/03/04 06:40:22;;;;;;;27.55;17.88;;;;;;;5.80;71.80;98345.69;5080310;28;20212;-75
2021/03/04 06:42:49;;;;;;;27.88;17.65;;;;;;;5.90;71.66;98349.00;5072874;28;20239;-75
2021/03/04 06:45:24;;;;;;;30.00;18.38;;;;;;;5.98;71.23;98336.78;5076797;28;20216;-76
2021/03/04 06:47:50;;;;;;;30.05;17.88;;;;;;;6.00;71.45;98343.69;5076896;28;20216;-75
2021/03/04 06:50:24;;;;;;;26.95;15.93;;;;;;;5.99;71.37;98335.06;5078428;28;20247;-76
2021/03/04 06:52:50;;;;;;;29.52;18.05;;;;;;;6.05;71.54;98341.91;5078404;28;20241;-75
2021/03/04 06:55:16;;;;;;;29.42;17.85;;;;;;;6.11;71.36;98337.44;5078098;28;20213;-77
2021/03/04 06:57:57;;;;;;;28.17;17.58;;;;;;;6.21;70.85;98337.28;5073809;28;20321;-76
2021/03/04 07:00:24;;;;;;;25.70;17.02;;;;;;;6.26;70.97;98335.47;5074705;28;20240;-76
2021/03/04 07:02:52;;;;;;;28.05;17.48;;;;;;;6.28;70.55;98329.34;5076315;28;20232;-76
2021/03/04 07:05:18;;;;;;;27.45;17.67;;;;;;;6.33;70.93;98327.53;5075649;28;20209;-76
2021/03/04 07:07:47;;;;;;;27.80;17.70;;;;;;;6.41;70.84;98329.13;5078624;28;20220;-75
2021/03/04 07:10:14;;;;;;;26.88;16.60;;;;;;;6.44;71.12;98324.75;5079270;28;20221;-75
2021/03/04 07:12:42;;;;;;;28.27;16.15;;;;;;;6.47;70.59;98322.13;5076680;28;20241;-75
2021/03/04 07:15:10;;;;;;;27.00;16.00;;;;;;;6.49;70.75;98319.50;5076531;28;20215;-78
2021/03/04 07:17:37;;;;;;;27.98;17.20;;;;;;;6.53;70.50;98323.72;5079526;28;20216;-76
2021/03/04 07:20:04;;;;;;;23.85;15.65;;;;;;;6.57;70.44;98321.03;5079415;28;20213;-77
2021/03/04 07:22:31;;;;;;;24.10;15.73;;;;;;;6.63;70.53;98314.88;5078717;28;20264;-76
2021/03/04 07:24:58;;;;;;;26.67;16.17;;;;;;;6.71;70.71;98310.41;5079761;28;20209;-77
2021/03/04 07:27:24;;;;;;;21.15;15.32;;;;;;;6.72;70.27;98313.84;5077406;28;20241;-75
2021/03/04 07:29:51;;;;;;;23.50;15.65;;;;;;;6.70;70.52;98318.19;5075811;28;20242;-77
2021/03/04 07:32:18;;;;;;;27.42;16.23;;;;;;;6.63;70.75;98320.06;5075542;28;20244;-76
2021/03/04 07:34:45;;;;;;;24.40;16.50;;;;;;;6.57;70.94;98321.03;5074426;28;20205;-76
2021/03/04 07:37:15;;;;;;;23.95;17.13;;;;;;;6.58;70.76;98316.72;5075222;28;20232;-75
2021/03/04 07:39:41;;;;;;;30.90;17.92;;;;;;;6.63;70.51;98309.69;5077449;28;20489;-76
2021/03/04 07:42:16;;;;;;;28.10;17.75;;;;;;;6.72;70.77;98314.69;5074071;28;20236;-76
2021/03/04 07:44:42;;;;;;;23.63;15.80;;;;;;;6.78;70.32;98312.84;5076174;28;20235;-76
2021/03/04 07:47:09;;;;;;;24.15;16.10;;;;;;;6.83;70.73;98311.88;5075730;28;20233;-76
2021/03/04 07:49:36;;;;;;;30.30;17.30;;;;;;;6.88;70.96;98309.19;5074067;28;20357;-76
2021/03/04 07:52:11;;;;;;;25.77;17.75;;;;;;;6.90;70.57;98308.25;5071361;28;20655;-76
2021/03/04 07:54:38;;;;;;;29.67;19.35;;;;;;;7.00;70.22;98306.31;5076817;28;20215;-77
2021/03/04 07:57:09;;;;;;;30.52;19.48;;;;;;;7.06;70.47;98302.75;5074901;28;20343;-76
2021/03/04 07:59:35;;;;;;;28.38;18.40;;;;;;;7.14;69.91;98301.69;5075654;28;20211;-77
2021/03/04 08:02:03;;;;;;;27.88;16.88;;;;;;;7.25;69.83;98304.03;5076030;28;20324;-76
2021/03/04 08:04:30;;;;;;;24.75;16.80;;;;;;;7.36;70.19;98305.56;5077737;28;20236;-76
2021/03/04 08:06:58;;;;;;;24.60;16.65;;;;;;;7.40;70.12;98297.66;5078196;28;20241;-78
2021/03/04 08:10:53;;;;;;;45.40;28.75;;;;;;;7.45;69.87;98295.81;5086102;27;20561;-76
2021/03/04 08:14:15;;;;;;;29.73;17.42;;;;;;;7.57;69.46;98291.19;5095797;27;20522;-76
2021/03/04 08:16:41;;;;;;;29.80;18.63;;;;;;;7.67;69.40;98290.09;5059402;27;20246;-75
2021/03/04 08:19:08;;;;;;;27.77;18.13;;;;;;;7.81;68.80;98287.13;5044620;28;20206;-76
2021/03/04 08:21:40;;;;;;;27.73;17.45;;;;;;;7.94;68.60;98282.50;5048872;28;20390;-76
2021/03/04 08:24:06;;;;;;;28.63;18.40;;;;;;;8.00;68.53;98279.75;5035525;28;20301;-75
2021/03/04 08:26:36;;;;;;;29.60;19.10;;;;;;;8.11;68.30;98288.13;5031940;28;20726;-77
2021/03/04 08:29:03;;;;;;;31.35;18.50;;;;;;;8.15;68.76;98279.34;5031078;28;20224;-76
2021/03/04 08:31:31;;;;;;;31.15;18.90;;;;;;;8.26;68.73;98279.06;5029902;28;20593;-76
2021/03/04 08:33:58;;;;;;;26.65;18.23;;;;;;;8.32;69.08;98276.28;5032547;28;20257;-75
2021/03/04 08:36:24;;;;;;;30.83;18.85;;;;;;;8.46;68.70;98275.94;5029485;28;20230;-76
2021/03/04 08:38:50;;;;;;;34.55;16.90;;;;;;;8.52;67.98;98267.13;5034612;28;20210;-76
2021/03/04 08:41:21;;;;;;;25.85;16.42;;;;;;;8.60;68.02;98268.59;5034225;28;20524;-75
2021/03/04 08:43:47;;;;;;;26.70;16.10;;;;;;;8.77;67.11;98264.66;5032960;28;20256;-75
2021/03/04 08:46:13;;;;;;;22.90;15.32;;;;;;;8.90;66.85;98260.78;5034273;28;20252;-77
2021/03/04 08:48:44;;;;;;;25.15;14.63;;;;;;;9.09;65.96;98249.81;5030404;28;20219;-76
2021/03/04 08:51:11;;;;;;;26.95;13.52;;;;;;;9.20;65.03;98252.94;5033039;28;20261;-77
2021/03/04 08:53:38;;;;;;;21.55;12.32;;;;;;;9.35;64.31;98252.44;5034312;28;21184;-76
2021/03/04 08:56:06;;;;;;;19.27;11.98;;;;;;;9.50;63.26;98245.88;5029811;28;21100;-75
2021/03/04 08:58:34;;;;;;;19.55;12.55;;;;;;;9.69;62.47;98240.94;5031457;28;20706;-75
2021/03/04 09:01:01;;;;;;;20.83;11.63;;;;;;;9.83;60.69;98233.50;5028779;28;20645;-75
2021/03/04 09:03:30;;;;;;;21.25;10.93;;;;;;;9.93;59.82;98227.97;5031426;28;20223;-75
2021/03/04 09:06:05;;;;;;;16.90;10.25;;;;;;;10.06;58.41;98226.63;5032450;28;20932;-75
2021/03/04 09:08:33;;;;;;;20.42;11.63;;;;;;;10.21;58.78;98220.88;5033021;28;20202;-77
2021/03/04 09:10:59;;;;;;;19.70;10.40;;;;;;;10.31;58.10;98218.84;5031174;28;20292;-79
2021/03/04 09:13:26;;;;;;;17.73;10.45;;;;;;;10.43;57.49;98217.53;5030885;28;20241;-76
2021/03/04 09:15:55;;;;;;;8.82;4.93;;;;;;;10.55;55.39;98224.91;5032061;28;20705;-75
2021/03/04 09:18:22;;;;;;;20.17;9.43;;;;;;;10.61;54.26;98216.84;5032253;28;20587;-74
2021/03/04 09:20:49;;;;;;;15.10;9.73;;;;;;;10.74;53.55;98205.94;5029243;28;20326;-78
2021/03/04 09:23:16;;;;;;;9.82;5.65;;;;;;;10.80;53.37;98205.69;5031042;28;20285;-77
2021/03/04 09:28:36;;;;;;;11.50;5.97;;;;;;;11.00;52.48;98192.72;4982858;28;20214;-75
2021/03/04 09:31:10;;;;;;;13.02;7.97;;;;;;;11.22;52.35;98191.00;5016020;28;20239;-75
2021/03/04 09:33:36;;;;;;;8.60;5.15;;;;;;;11.33;52.16;98184.44;5017404;28;20603;-75
2021/03/04 09:36:04;;;;;;;16.35;8.43;;;;;;;11.46;51.55;98183.94;5018108;28;20258;-75
2021/03/04 09:38:34;;;;;;;16.38;10.00;;;;;;;11.61;51.79;98180.66;5016669;28;20217;-75
2021/03/04 09:41:11;;;;;;;11.38;5.97;;;;;;;11.64;50.46;98171.88;5014875;28;20240;-76
2021/03/04 09:43:42;;;;;;;16.17;10.18;;;;;;;11.82;51.23;98178.03;5017113;28;20331;-75
2021/03/04 09:46:08;;;;;;;19.10;10.23;;;;;;;12.03;51.14;98176.31;5018911;28;20277;-75
2021/03/04 09:48:38;;;;;;;17.60;10.95;;;;;;;12.18;50.00;98167.78;5020524;28;20254;-76
2021/03/04 09:51:04;;;;;;;17.35;7.85;;;;;;;12.18;49.61;98166.94;5018918;28;20246;-75
2021/03/04 09:53:31;;;;;;;17.77;9.80;;;;;;;12.40;50.29;98167.66;5020083;28;20698;-75
2021/03/04 09:56:03;;;;;;;18.02;10.05;;;;;;;12.54;49.67;98160.03;5016465;28;20246;-76
2021/03/04 09:58:30;;;;;;;16.55;10.68;;;;;;;12.52;48.83;98148.78;5014511;28;20211;-75
2021/03/04 10:00:58;;;;;;;16.40;10.43;;;;;;;12.42;49.14;98151.88;5014878;28;20234;-76
2021/03/04 10:03:32;;;;;;;16.23;9.43;;;;;;;12.17;49.53;98146.91;5015680;28;20234;-76
2021/03/04 10:05:58;;;;;;;9.43;5.80;;;;;;;12.02;50.27;98146.72;5016179;28;20318;-75
2021/03/04 10:08:25;;;;;;;17.27;9.73;;;;;;;12.06;50.41;98142.19;5014257;28;20211;-76
2021/03/04 10:10:52;;;;;;;21.67;6.57;;;;;;;11.93;49.80;98141.91;5016998;28;20227;-75
2021/03/04 10:13:27;;;;;;;16.25;9.88;;;;;;;12.00;49.87;98138.06;5017058;28;20914;-75
2021/03/04 10:15:53;;;;;;;14.93;9.30;;;;;;;12.10;50.55;98141.97;5014786;28;20234;-75
2021/03/04 10:18:20;;;;;;;17.77;9.68;;;;;;;12.18;50.36;98141.63;5015170;28;20225;-75
2021/03/04 10:20:47;;;;;;;13.15;7.10;;;;;;;12.30;49.82;98141.06;5018659;28;20322;-75
2021/03/04 10:23:14;;;;;;;11.10;6.15;;;;;;;12.32;49.64;98141.84;5019286;28;20924;-75
2021/03/04 10:25:41;;;;;;;18.83;9.20;;;;;;;12.31;49.47;98137.56;5018683;28;20329;-76
2021/03/04 10:28:09;;;;;;;14.10;8.13;;;;;;;12.41;49.96;98145.81;5016702;28;20211;-76
2021/03/04 10:30:37;;;;;;;9.73;5.43;;;;;;;12.51;49.51;98134.00;5016598;28;20234;-75
2021/03/04 10:33:04;;;;;;;15.73;8.63;;;;;;;12.67;49.22;98122.81;5016510;28;20354;-77
2021/03/04 10:35:31;;;;;;;18.05;10.27;;;;;;;12.84;49.39;98124.63;5016664;28;20234;-75
2021/03/04 10:37:57;;;;;;;12.10;8.02;;;;;;;12.78;48.76;98115.28;5019345;28;20219;-77
2021/03/04 10:40:24;;;;;;;16.52;8.18;;;;;;;12.92;48.88;98115.50;5018581;28;20241;-76
2021/03/04 10:42:50;;;;;;;18.13;9.40;;;;;;;13.07;48.48;98108.66;5017369;28;20238;-75
2021/03/04 10:45:19;;;;;;;14.98;9.75;;;;;;;13.49;47.77;98109.19;5016838;28;20345;-75
2021/03/04 10:47:46;;;;;;;17.33;10.70;;;;;;;13.89;47.01;98104.50;5017149;28;20203;-75
2021/03/04 10:50:17;;;;;;;15.57;10.98;;;;;;;14.08;46.57;98110.50;5016162;28;20637;-75
2021/03/04 10:54:22;;;;;;;;;;;;;;;;;;;;;
2021/03/04 10:57:07;;;;;;;16.00;9.10;;;;;;;14.55;45.43;98102.72;5034043;27;1476899;-75
2021/03/04 10:59:33;;;;;;;18.20;9.75;;;;;;;14.46;45.82;98104.06;5077347;28;20204;-75
2021/03/04 11:02:00;;;;;;;16.20;10.65;;;;;;;14.51;45.66;98111.72;5073592;28;20316;-77
2021/03/04 11:04:26;;;;;;;11.80;8.05;;;;;;;14.59;45.58;98099.91;5064535;28;20219;-76
2021/03/04 11:06:52;;;;;;;13.20;8.18;;;;;;;14.78;45.75;98099.69;5063483;28;20233;-76
2021/03/04 11:09:18;;;;;;;17.67;11.23;;;;;;;15.02;44.73;98096.63;5063905;28;20299;-75
2021/03/04 11:11:44;;;;;;;22.27;10.90;;;;;;;15.14;44.55;98088.00;5066024;28;20347;-76
2021/03/04 11:14:11;;;;;;;16.05;9.73;;;;;;;15.28;44.66;98086.38;5068417;28;20586;-80
2021/03/04 11:16:38;;;;;;;17.75;10.32;;;;;;;15.33;44.01;98079.03;5065995;28;20247;-76
2021/03/04 11:19:04;;;;;;;11.82;4.85;;;;;;;14.97;43.79;98077.63;5065894;28;20274;-76
2021/03/04 11:21:30;;;;;;;17.35;10.07;;;;;;;15.12;44.38;98065.38;5067329;28;20251;-76
2021/03/04 11:23:57;;;;;;;19.65;6.25;;;;;;;15.36;43.78;98073.59;5069025;28;20228;-76
2021/03/04 11:26:23;;;;;;;14.60;10.13;;;;;;;15.36;43.39;98065.72;5069722;28;20236;-76
2021/03/04 11:28:49;;;;;;;16.00;9.02;;;;;;;15.16;43.88;98067.75;5069291;28;20217;-77
2021/03/04 11:31:16;;;;;;;10.63;5.00;;;;;;;14.61;44.74;98069.16;5069089;28;20233;-76
2021/03/04 11:33:42;;;;;;;9.77;4.03;;;;;;;14.80;44.92;98061.06;5069026;28;20257;-76